Terminal Aerodrome Forecast
Issued by NWS St Louis, MO

Home | Current Version | Previous Version | Text Only | Print | Product List | Glossary On
Versions: 1 2 3 4 5 6 7 8 9 10 11 12 13 14 15 16 17 18 19 20 21 22 23
000
FTUS43 KLSX 210245 AAA
TAFSTL
TAF AMD
KSTL 210245Z 2103/2206 26006KT P6SM BKN060
     FM210800 28008KT P6SM SCT200
     FM211700 28012G18KT P6SM SCT090
     FM220000 29007KT P6SM FEW200=

USA.gov is the U.S. government's official web portal to all federal, state and local government web resources and services.